sensor_id;sensor_type;location;lat;lon;timestamp;temperature;humidity
3037;DHT22;1528;52.550;13.408;2023-07-20T00:01:14;19.00;35.20
3037;DHT22;1528;52.550;13.408;2023-07-20T00:04:00;19.00;35.10
3037;DHT22;1528;52.550;13.408;2023-07-20T00:06:45;18.90;35.20
3037;DHT22;1528;52.550;13.408;2023-07-20T00:09:31;18.90;35.70
3037;DHT22;1528;52.550;13.408;2023-07-20T00:12:18;19.00;35.50
3037;DHT22;1528;52.550;13.408;2023-07-20T00:15:04;19.00;35.70
3037;DHT22;1528;52.550;13.408;2023-07-20T00:17:50;18.90;35.90
3037;DHT22;1528;52.550;13.408;2023-07-20T00:20:36;18.90;35.90
3037;DHT22;1528;52.550;13.408;2023-07-20T00:23:21;18.90;36.60
3037;DHT22;1528;52.550;13.408;2023-07-20T00:26:07;18.90;36.00
3037;DHT22;1528;52.550;13.408;2023-07-20T00:28:54;18.90;35.90
3037;DHT22;1528;52.550;13.408;2023-07-20T00:31:39;18.90;35.50
3037;DHT22;1528;52.550;13.408;2023-07-20T00:34:25;18.80;35.40
3037;DHT22;1528;52.550;13.408;2023-07-20T00:37:11;18.80;35.80
3037;DHT22;1528;52.550;13.408;2023-07-20T00:39:56;18.70;35.80
3037;DHT22;1528;52.550;13.408;2023-07-20T00:42:42;18.70;35.90
3037;DHT22;1528;52.550;13.408;2023-07-20T00:45:29;18.60;36.20
3037;DHT22;1528;52.550;13.408;2023-07-20T00:48:15;18.60;36.30
3037;DHT22;1528;52.550;13.408;2023-07-20T00:51:01;18.60;36.50
3037;DHT22;1528;52.550;13.408;2023-07-20T00:53:47;18.60;36.60
3037;DHT22;1528;52.550;13.408;2023-07-20T00:56:33;18.50;36.40
3037;DHT22;1528;52.550;13.408;2023-07-20T00:59:18;18.50;36.00
3037;DHT22;1528;52.550;13.408;2023-07-20T01:02:05;18.50;36.00
3037;DHT22;1528;52.550;13.408;2023-07-20T01:04:51;18.50;36.20
3037;DHT22;1528;52.550;13.408;2023-07-20T01:07:40;18.50;36.10
3037;DHT22;1528;52.550;13.408;2023-07-20T01:10:33;18.50;36.00
3037;DHT22;1528;52.550;13.408;2023-07-20T01:13:22;18.60;35.80
3037;DHT22;1528;52.550;13.408;2023-07-20T01:16:08;18.50;36.10
3037;DHT22;1528;52.550;13.408;2023-07-20T01:18:55;18.50;36.10
3037;DHT22;1528;52.550;13.408;2023-07-20T01:21:47;18.50;36.80
3037;DHT22;1528;52.550;13.408;2023-07-20T01:25:02;18.60;36.00
3037;DHT22;1528;52.550;13.408;2023-07-20T01:28:28;18.60;35.90
3037;DHT22;1528;52.550;13.408;2023-07-20T01:31:21;18.60;35.90
3037;DHT22;1528;52.550;13.408;2023-07-20T01:34:10;18.60;35.70
3037;DHT22;1528;52.550;13.408;2023-07-20T01:36:57;18.60;35.70
3037;DHT22;1528;52.550;13.408;2023-07-20T01:39:44;18.60;35.60
3037;DHT22;1528;52.550;13.408;2023-07-20T01:42:30;18.60;35.60
3037;DHT22;1528;52.550;13.408;2023-07-20T01:45:16;18.60;35.60
3037;DHT22;1528;52.550;13.408;2023-07-20T01:48:04;18.50;35.60
3037;DHT22;1528;52.550;13.408;2023-07-20T01:50:49;18.50;36.00
3037;DHT22;1528;52.550;13.408;2023-07-20T01:53:35;18.50;36.10
3037;DHT22;1528;52.550;13.408;2023-07-20T01:56:21;18.50;36.10
3037;DHT22;1528;52.550;13.408;2023-07-20T01:59:06;18.50;35.80
3037;DHT22;1528;52.550;13.408;2023-07-20T02:01:52;18.50;35.90
3037;DHT22;1528;52.550;13.408;2023-07-20T02:04:42;18.50;36.10
3037;DHT22;1528;52.550;13.408;2023-07-20T02:07:27;18.50;36.00
3037;DHT22;1528;52.550;13.408;2023-07-20T02:10:13;18.50;36.00
3037;DHT22;1528;52.550;13.408;2023-07-20T02:12:58;18.50;36.80
3037;DHT22;1528;52.550;13.408;2023-07-20T02:15:44;18.50;35.70
3037;DHT22;1528;52.550;13.408;2023-07-20T02:18:31;18.40;35.70
3037;DHT22;1528;52.550;13.408;2023-07-20T02:21:19;18.40;35.90
3037;DHT22;1528;52.550;13.408;2023-07-20T02:24:04;18.40;36.60
3037;DHT22;1528;52.550;13.408;2023-07-20T02:26:51;18.30;36.00
3037;DHT22;1528;52.550;13.408;2023-07-20T02:29:36;18.40;36.00
3037;DHT22;1528;52.550;13.408;2023-07-20T02:32:22;18.30;36.70
3037;DHT22;1528;52.550;13.408;2023-07-20T02:35:08;18.30;36.00
3037;DHT22;1528;52.550;13.408;2023-07-20T02:37:54;18.30;36.20
3037;DHT22;1528;52.550;13.408;2023-07-20T02:40:40;18.30;36.30
3037;DHT22;1528;52.550;13.408;2023-07-20T02:43:26;18.20;36.50
3037;DHT22;1528;52.550;13.408;2023-07-20T02:46:11;18.20;36.90
3037;DHT22;1528;52.550;13.408;2023-07-20T02:48:57;18.10;37.10
3037;DHT22;1528;52.550;13.408;2023-07-20T02:51:43;18.10;37.10
3037;DHT22;1528;52.550;13.408;2023-07-20T02:54:30;18.00;37.30
3037;DHT22;1528;52.550;13.408;2023-07-20T02:57:15;18.00;37.30
3037;DHT22;1528;52.550;13.408;2023-07-20T03:00:02;18.00;37.30
3037;DHT22;1528;52.550;13.408;2023-07-20T03:02:48;17.90;37.30
3037;DHT22;1528;52.550;13.408;2023-07-20T03:05:36;17.90;37.80
3037;DHT22;1528;52.550;13.408;2023-07-20T03:10:58;17.80;38.20
3037;DHT22;1528;52.550;13.408;2023-07-20T03:13:44;17.90;38.30
3037;DHT22;1528;52.550;13.408;2023-07-20T03:16:30;17.90;38.50
3037;DHT22;1528;52.550;13.408;2023-07-20T03:19:17;17.90;38.40
3037;DHT22;1528;52.550;13.408;2023-07-20T03:22:03;17.90;38.60
3037;DHT22;1528;52.550;13.408;2023-07-20T03:24:48;17.90;38.60
3037;DHT22;1528;52.550;13.408;2023-07-20T03:27:36;18.00;38.40
3037;DHT22;1528;52.550;13.408;2023-07-20T03:30:21;18.10;38.00
3037;DHT22;1528;52.550;13.408;2023-07-20T03:33:07;18.10;38.10
3037;DHT22;1528;52.550;13.408;2023-07-20T03:35:53;18.00;38.00
3037;DHT22;1528;52.550;13.408;2023-07-20T03:38:38;18.10;38.20
3037;DHT22;1528;52.550;13.408;2023-07-20T03:41:24;18.10;38.10
3037;DHT22;1528;52.550;13.408;2023-07-20T03:44:11;18.00;38.00
3037;DHT22;1528;52.550;13.408;2023-07-20T03:46:56;18.10;38.60
3037;DHT22;1528;52.550;13.408;2023-07-20T03:49:42;18.10;38.20
3037;DHT22;1528;52.550;13.408;2023-07-20T03:52:28;18.10;37.90
3037;DHT22;1528;52.550;13.408;2023-07-20T03:55:13;18.00;37.70
3037;DHT22;1528;52.550;13.408;2023-07-20T03:57:59;18.00;37.80
3037;DHT22;1528;52.550;13.408;2023-07-20T04:00:47;17.90;38.10
3037;DHT22;1528;52.550;13.408;2023-07-20T04:03:32;17.90;38.00
3037;DHT22;1528;52.550;13.408;2023-07-20T04:06:18;17.90;38.00
3037;DHT22;1528;52.550;13.408;2023-07-20T04:09:04;18.00;38.10
3037;DHT22;1528;52.550;13.408;2023-07-20T04:11:50;17.90;38.00
3037;DHT22;1528;52.550;13.408;2023-07-20T04:14:35;17.80;38.30
3037;DHT22;1528;52.550;13.408;2023-07-20T04:17:22;17.80;38.10
3037;DHT22;1528;52.550;13.408;2023-07-20T04:20:08;17.90;37.90
3037;DHT22;1528;52.550;13.408;2023-07-20T04:22:53;17.90;37.80
3037;DHT22;1528;52.550;13.408;2023-07-20T04:25:40;17.90;37.80
3037;DHT22;1528;52.550;13.408;2023-07-20T04:28:25;17.90;37.80
3037;DHT22;1528;52.550;13.408;2023-07-20T04:31:12;17.90;37.70
3037;DHT22;1528;52.550;13.408;2023-07-20T04:33:59;17.90;37.60
3037;DHT22;1528;52.550;13.408;2023-07-20T04:36:45;17.90;38.00
3037;DHT22;1528;52.550;13.408;2023-07-20T04:39:30;17.90;37.90
3037;DHT22;1528;52.550;13.408;2023-07-20T04:42:16;18.00;37.70
3037;DHT22;1528;52.550;13.408;2023-07-20T04:45:02;18.10;37.40
3037;DHT22;1528;52.550;13.408;2023-07-20T04:47:48;18.10;37.20
3037;DHT22;1528;52.550;13.408;2023-07-20T04:50:35;18.20;36.70
3037;DHT22;1528;52.550;13.408;2023-07-20T04:53:21;18.20;36.90
3037;DHT22;1528;52.550;13.408;2023-07-20T04:56:07;18.20;37.50
3037;DHT22;1528;52.550;13.408;2023-07-20T04:58:53;18.30;36.60
3037;DHT22;1528;52.550;13.408;2023-07-20T05:01:39;18.40;36.00
3037;DHT22;1528;52.550;13.408;2023-07-20T05:04:24;18.40;36.00
3037;DHT22;1528;52.550;13.408;2023-07-20T05:07:11;18.50;35.70
3037;DHT22;1528;52.550;13.408;2023-07-20T05:09:56;18.60;35.40
3037;DHT22;1528;52.550;13.408;2023-07-20T05:12:42;18.70;35.20
3037;DHT22;1528;52.550;13.408;2023-07-20T05:15:27;18.70;33.80
3037;DHT22;1528;52.550;13.408;2023-07-20T05:18:13;18.60;33.80
3037;DHT22;1528;52.550;13.408;2023-07-20T05:21:05;18.60;33.40
3037;DHT22;1528;52.550;13.408;2023-07-20T05:23:51;18.60;33.50
3037;DHT22;1528;52.550;13.408;2023-07-20T05:26:37;18.60;33.50
3037;DHT22;1528;52.550;13.408;2023-07-20T05:29:23;18.70;33.50
3037;DHT22;1528;52.550;13.408;2023-07-20T05:32:09;18.70;33.20
3037;DHT22;1528;52.550;13.408;2023-07-20T05:34:55;18.70;33.10
3037;DHT22;1528;52.550;13.408;2023-07-20T05:37:41;18.60;33.40
3037;DHT22;1528;52.550;13.408;2023-07-20T05:40:28;18.60;33.40
3037;DHT22;1528;52.550;13.408;2023-07-20T05:43:13;18.70;33.40
3037;DHT22;1528;52.550;13.408;2023-07-20T05:45:59;18.80;33.60
3037;DHT22;1528;52.550;13.408;2023-07-20T05:48:45;18.90;32.80
3037;DHT22;1528;52.550;13.408;2023-07-20T05:51:30;19.10;32.60
3037;DHT22;1528;52.550;13.408;2023-07-20T05:54:16;19.20;32.10
3037;DHT22;1528;52.550;13.408;2023-07-20T05:57:04;19.40;31.60
3037;DHT22;1528;52.550;13.408;2023-07-20T05:59:50;19.40;31.30
3037;DHT22;1528;52.550;13.408;2023-07-20T06:02:35;19.30;30.50
3037;DHT22;1528;52.550;13.408;2023-07-20T06:05:21;19.30;31.10
3037;DHT22;1528;52.550;13.408;2023-07-20T06:08:07;19.50;30.60
3037;DHT22;1528;52.550;13.408;2023-07-20T06:10:53;19.40;31.10
3037;DHT22;1528;52.550;13.408;2023-07-20T06:13:40;19.40;30.20
3037;DHT22;1528;52.550;13.408;2023-07-20T06:16:27;19.30;30.00
3037;DHT22;1528;52.550;13.408;2023-07-20T06:19:13;19.30;30.20
3037;DHT22;1528;52.550;13.408;2023-07-20T06:21:58;19.30;30.50
3037;DHT22;1528;52.550;13.408;2023-07-20T06:24:44;19.70;29.80
3037;DHT22;1528;52.550;13.408;2023-07-20T06:27:30;19.40;29.50
3037;DHT22;1528;52.550;13.408;2023-07-20T06:30:17;19.40;29.40
3037;DHT22;1528;52.550;13.408;2023-07-20T06:33:03;19.50;29.50
3037;DHT22;1528;52.550;13.408;2023-07-20T06:35:48;19.60;29.20
3037;DHT22;1528;52.550;13.408;2023-07-20T06:38:34;19.70;28.90
3037;DHT22;1528;52.550;13.408;2023-07-20T06:41:19;19.70;28.70
3037;DHT22;1528;52.550;13.408;2023-07-20T06:44:05;19.80;28.10
3037;DHT22;1528;52.550;13.408;2023-07-20T06:46:53;19.80;28.30
3037;DHT22;1528;52.550;13.408;2023-07-20T06:49:38;19.70;27.80
3037;DHT22;1528;52.550;13.408;2023-07-20T06:52:25;19.90;27.80
3037;DHT22;1528;52.550;13.408;2023-07-20T06:55:10;19.90;27.40
3037;DHT22;1528;52.550;13.408;2023-07-20T06:57:56;20.10;27.50
3037;DHT22;1528;52.550;13.408;2023-07-20T07:00:41;20.30;27.00
3037;DHT22;1528;52.550;13.408;2023-07-20T07:03:28;20.20;26.50
3037;DHT22;1528;52.550;13.408;2023-07-20T07:06:14;20.50;25.70
3037;DHT22;1528;52.550;13.408;2023-07-20T07:09:00;20.60;25.90
3037;DHT22;1528;52.550;13.408;2023-07-20T07:11:46;20.60;25.40
3037;DHT22;1528;52.550;13.408;2023-07-20T07:14:31;20.40;25.00
3037;DHT22;1528;52.550;13.408;2023-07-20T07:17:17;20.50;25.00
3037;DHT22;1528;52.550;13.408;2023-07-20T07:20:05;20.80;24.60
3037;DHT22;1528;52.550;13.408;2023-07-20T07:22:51;21.10;23.40
3037;DHT22;1528;52.550;13.408;2023-07-20T07:25:37;21.20;22.60
3037;DHT22;1528;52.550;13.408;2023-07-20T07:28:23;21.20;23.10
3037;DHT22;1528;52.550;13.408;2023-07-20T07:31:09;21.40;22.10
3037;DHT22;1528;52.550;13.408;2023-07-20T07:33:55;21.60;21.80
3037;DHT22;1528;52.550;13.408;2023-07-20T07:36:42;21.80;21.00
3037;DHT22;1528;52.550;13.408;2023-07-20T07:39:28;21.80;20.60
3037;DHT22;1528;52.550;13.408;2023-07-20T07:42:14;21.80;20.80
3037;DHT22;1528;52.550;13.408;2023-07-20T07:45:00;21.90;20.60
3037;DHT22;1528;52.550;13.408;2023-07-20T07:47:45;22.00;20.40
3037;DHT22;1528;52.550;13.408;2023-07-20T07:50:31;22.00;19.90
3037;DHT22;1528;52.550;13.408;2023-07-20T07:53:18;22.00;19.30
3037;DHT22;1528;52.550;13.408;2023-07-20T07:56:06;22.10;19.30
3037;DHT22;1528;52.550;13.408;2023-07-20T07:58:52;22.40;18.40
3037;DHT22;1528;52.550;13.408;2023-07-20T08:01:38;22.40;17.60
3037;DHT22;1528;52.550;13.408;2023-07-20T08:04:24;22.50;17.90
3037;DHT22;1528;52.550;13.408;2023-07-20T08:07:09;22.40;16.80
3037;DHT22;1528;52.550;13.408;2023-07-20T08:09:56;22.30;17.10
3037;DHT22;1528;52.550;13.408;2023-07-20T08:12:42;22.10;17.80
3037;DHT22;1528;52.550;13.408;2023-07-20T08:15:28;22.00;18.20
3037;DHT22;1528;52.550;13.408;2023-07-20T08:18:13;21.90;18.80
3037;DHT22;1528;52.550;13.408;2023-07-20T08:20:59;21.90;18.60
3037;DHT22;1528;52.550;13.408;2023-07-20T08:23:45;21.90;18.60
3037;DHT22;1528;52.550;13.408;2023-07-20T08:26:32;21.90;18.80
3037;DHT22;1528;52.550;13.408;2023-07-20T08:29:17;22.00;18.10
3037;DHT22;1528;52.550;13.408;2023-07-20T08:32:04;22.20;18.00
3037;DHT22;1528;52.550;13.408;2023-07-20T08:34:49;22.40;17.90
3037;DHT22;1528;52.550;13.408;2023-07-20T08:37:35;22.50;17.60
3037;DHT22;1528;52.550;13.408;2023-07-20T08:40:20;22.50;17.30
3037;DHT22;1528;52.550;13.408;2023-07-20T08:43:08;22.50;17.10
3037;DHT22;1528;52.550;13.408;2023-07-20T08:45:55;22.50;16.40
3037;DHT22;1528;52.550;13.408;2023-07-20T08:48:41;22.50;16.40
3037;DHT22;1528;52.550;13.408;2023-07-20T08:51:27;22.50;15.80
3037;DHT22;1528;52.550;13.408;2023-07-20T08:54:13;22.30;15.10
3037;DHT22;1528;52.550;13.408;2023-07-20T08:57:01;22.10;15.70
3037;DHT22;1528;52.550;13.408;2023-07-20T08:59:51;22.10;15.90
3037;DHT22;1528;52.550;13.408;2023-07-20T09:02:39;22.10;16.40
3037;DHT22;1528;52.550;13.408;2023-07-20T09:05:25;22.40;15.70
3037;DHT22;1528;52.550;13.408;2023-07-20T09:08:11;22.40;15.20
3037;DHT22;1528;52.550;13.408;2023-07-20T09:10:56;22.60;15.20
3037;DHT22;1528;52.550;13.408;2023-07-20T09:13:42;22.90;14.40
3037;DHT22;1528;52.550;13.408;2023-07-20T09:16:29;22.90;14.30
3037;DHT22;1528;52.550;13.408;2023-07-20T09:19:15;22.80;14.40
3037;DHT22;1528;52.550;13.408;2023-07-20T09:22:00;22.70;14.60
3037;DHT22;1528;52.550;13.408;2023-07-20T09:24:46;22.60;15.00
3037;DHT22;1528;52.550;13.408;2023-07-20T09:27:35;22.50;15.20
3037;DHT22;1528;52.550;13.408;2023-07-20T09:30:25;22.70;15.20
3037;DHT22;1528;52.550;13.408;2023-07-20T09:33:21;22.80;14.70
3037;DHT22;1528;52.550;13.408;2023-07-20T09:36:09;23.00;14.70
3037;DHT22;1528;52.550;13.408;2023-07-20T09:38:55;23.00;13.60
3037;DHT22;1528;52.550;13.408;2023-07-20T09:41:41;22.90;13.70
3037;DHT22;1528;52.550;13.408;2023-07-20T09:44:28;22.70;13.90
3037;DHT22;1528;52.550;13.408;2023-07-20T09:47:21;22.40;14.50
3037;DHT22;1528;52.550;13.408;2023-07-20T09:50:09;22.30;14.80
3037;DHT22;1528;52.550;13.408;2023-07-20T09:52:56;22.10;15.40
3037;DHT22;1528;52.550;13.408;2023-07-20T09:55:43;22.00;15.70
3037;DHT22;1528;52.550;13.408;2023-07-20T09:58:30;21.90;16.00
3037;DHT22;1528;52.550;13.408;2023-07-20T10:01:20;21.90;16.50
3037;DHT22;1528;52.550;13.408;2023-07-20T10:04:08;21.80;16.60
3037;DHT22;1528;52.550;13.408;2023-07-20T10:06:59;21.80;17.00
3037;DHT22;1528;52.550;13.408;2023-07-20T10:09:46;21.70;17.00
3037;DHT22;1528;52.550;13.408;2023-07-20T10:12:34;21.80;17.50
3037;DHT22;1528;52.550;13.408;2023-07-20T10:15:23;21.80;17.60
3037;DHT22;1528;52.550;13.408;2023-07-20T10:18:12;21.80;17.60
3037;DHT22;1528;52.550;13.408;2023-07-20T10:21:00;21.90;17.40
3037;DHT22;1528;52.550;13.408;2023-07-20T10:23:47;21.80;17.20
3037;DHT22;1528;52.550;13.408;2023-07-20T10:26:33;21.70;17.20
3037;DHT22;1528;52.550;13.408;2023-07-20T10:29:19;21.80;16.90
3037;DHT22;1528;52.550;13.408;2023-07-20T10:32:06;21.70;16.60
3037;DHT22;1528;52.550;13.408;2023-07-20T10:34:53;21.70;17.00
3037;DHT22;1528;52.550;13.408;2023-07-20T10:37:49;21.80;16.70
3037;DHT22;1528;52.550;13.408;2023-07-20T10:40:38;21.90;15.80
3037;DHT22;1528;52.550;13.408;2023-07-20T10:43:24;22.00;16.10
3037;DHT22;1528;52.550;13.408;2023-07-20T10:46:11;22.10;16.10
3037;DHT22;1528;52.550;13.408;2023-07-20T10:49:01;22.30;16.00
3037;DHT22;1528;52.550;13.408;2023-07-20T10:51:48;22.40;16.10
3037;DHT22;1528;52.550;13.408;2023-07-20T10:54:46;22.40;16.10
3037;DHT22;1528;52.550;13.408;2023-07-20T10:57:34;22.50;16.20
3037;DHT22;1528;52.550;13.408;2023-07-20T11:00:20;22.60;16.00
3037;DHT22;1528;52.550;13.408;2023-07-20T11:03:07;22.70;15.70
3037;DHT22;1528;52.550;13.408;2023-07-20T11:05:53;22.70;15.70
3037;DHT22;1528;52.550;13.408;2023-07-20T11:08:40;22.90;14.90
3037;DHT22;1528;52.550;13.408;2023-07-20T11:11:27;23.10;14.70
3037;DHT22;1528;52.550;13.408;2023-07-20T11:14:22;23.40;14.70
3037;DHT22;1528;52.550;13.408;2023-07-20T11:17:12;23.60;13.60
3037;DHT22;1528;52.550;13.408;2023-07-20T11:19:59;23.70;13.70
3037;DHT22;1528;52.550;13.408;2023-07-20T11:22:46;23.30;13.80
3037;DHT22;1528;52.550;13.408;2023-07-20T11:25:37;23.00;14.80
3037;DHT22;1528;52.550;13.408;2023-07-20T11:28:22;23.00;14.70
3037;DHT22;1528;52.550;13.408;2023-07-20T11:31:09;23.10;14.50
3037;DHT22;1528;52.550;13.408;2023-07-20T11:33:55;23.30;13.80
3037;DHT22;1528;52.550;13.408;2023-07-20T11:36:41;23.30;13.30
3037;DHT22;1528;52.550;13.408;2023-07-20T11:39:27;23.00;13.80
3037;DHT22;1528;52.550;13.408;2023-07-20T11:42:14;23.00;14.40
3037;DHT22;1528;52.550;13.408;2023-07-20T11:45:02;23.00;14.30
3037;DHT22;1528;52.550;13.408;2023-07-20T11:47:50;23.30;13.90
3037;DHT22;1528;52.550;13.408;2023-07-20T11:50:39;23.40;13.30
3037;DHT22;1528;52.550;13.408;2023-07-20T11:53:25;23.40;12.90
3037;DHT22;1528;52.550;13.408;2023-07-20T11:56:11;23.60;12.00
3037;DHT22;1528;52.550;13.408;2023-07-20T11:58:58;23.50;11.70
3037;DHT22;1528;52.550;13.408;2023-07-20T12:01:45;23.30;12.00
3037;DHT22;1528;52.550;13.408;2023-07-20T12:04:33;23.10;13.10
3037;DHT22;1528;52.550;13.408;2023-07-20T12:07:19;22.80;13.50
3037;DHT22;1528;52.550;13.408;2023-07-20T12:10:06;22.60;14.80
3037;DHT22;1528;52.550;13.408;2023-07-20T12:12:52;22.30;14.90
3037;DHT22;1528;52.550;13.408;2023-07-20T12:15:37;22.10;14.30
3037;DHT22;1528;52.550;13.408;2023-07-20T12:18:23;22.10;14.50
3037;DHT22;1528;52.550;13.408;2023-07-20T12:21:11;21.90;15.20
3037;DHT22;1528;52.550;13.408;2023-07-20T12:23:57;21.80;15.80
3037;DHT22;1528;52.550;13.408;2023-07-20T12:26:43;21.90;16.00
3037;DHT22;1528;52.550;13.408;2023-07-20T12:29:29;22.00;15.80
3037;DHT22;1528;52.550;13.408;2023-07-20T12:32:15;22.20;15.40
3037;DHT22;1528;52.550;13.408;2023-07-20T12:35:01;22.60;14.80
3037;DHT22;1528;52.550;13.408;2023-07-20T12:37:48;22.80;13.50
3037;DHT22;1528;52.550;13.408;2023-07-20T12:40:35;22.80;13.50
3037;DHT22;1528;52.550;13.408;2023-07-20T12:43:21;22.60;13.60
3037;DHT22;1528;52.550;13.408;2023-07-20T12:46:07;22.60;13.60
3037;DHT22;1528;52.550;13.408;2023-07-20T12:48:52;22.70;13.80
3037;DHT22;1528;52.550;13.408;2023-07-20T12:51:38;22.60;13.00
3037;DHT22;1528;52.550;13.408;2023-07-20T12:54:25;22.70;13.10
3037;DHT22;1528;52.550;13.408;2023-07-20T12:57:10;22.70;11.20
3037;DHT22;1528;52.550;13.408;2023-07-20T12:59:55;22.70;10.70
3037;DHT22;1528;52.550;13.408;2023-07-20T13:02:41;22.70;9.60
3037;DHT22;1528;52.550;13.408;2023-07-20T13:05:27;22.70;10.30
3037;DHT22;1528;52.550;13.408;2023-07-20T13:08:13;22.80;11.30
3037;DHT22;1528;52.550;13.408;2023-07-20T13:11:00;22.90;11.30
3037;DHT22;1528;52.550;13.408;2023-07-20T13:13:46;22.90;11.50
3037;DHT22;1528;52.550;13.408;2023-07-20T13:16:31;22.90;11.40
3037;DHT22;1528;52.550;13.408;2023-07-20T13:19:18;23.10;10.10
3037;DHT22;1528;52.550;13.408;2023-07-20T13:22:04;23.10;8.20
3037;DHT22;1528;52.550;13.408;2023-07-20T13:24:49;23.10;7.70
3037;DHT22;1528;52.550;13.408;2023-07-20T13:27:36;23.20;7.00
3037;DHT22;1528;52.550;13.408;2023-07-20T13:30:22;23.20;7.60
3037;DHT22;1528;52.550;13.408;2023-07-20T13:33:08;23.30;7.90
3037;DHT22;1528;52.550;13.408;2023-07-20T13:35:53;23.40;6.70
3037;DHT22;1528;52.550;13.408;2023-07-20T13:38:39;23.50;7.00
3037;DHT22;1528;52.550;13.408;2023-07-20T13:41:24;23.60;6.80
3037;DHT22;1528;52.550;13.408;2023-07-20T13:44:11;23.70;6.40
3037;DHT22;1528;52.550;13.408;2023-07-20T13:46:57;23.60;5.80
3037;DHT22;1528;52.550;13.408;2023-07-20T13:49:43;23.60;5.80
3037;DHT22;1528;52.550;13.408;2023-07-20T13:52:29;23.70;5.60
3037;DHT22;1528;52.550;13.408;2023-07-20T13:55:14;23.70;5.50
3037;DHT22;1528;52.550;13.408;2023-07-20T13:58:00;23.80;5.70
3037;DHT22;1528;52.550;13.408;2023-07-20T14:00:47;23.90;4.90
3037;DHT22;1528;52.550;13.408;2023-07-20T14:03:32;24.00;5.10
3037;DHT22;1528;52.550;13.408;2023-07-20T14:06:18;24.10;5.00
3037;DHT22;1528;52.550;13.408;2023-07-20T14:09:03;24.20;3.80
3037;DHT22;1528;52.550;13.408;2023-07-20T14:11:49;24.30;4.40
3037;DHT22;1528;52.550;13.408;2023-07-20T14:14:35;24.40;4.60
3037;DHT22;1528;52.550;13.408;2023-07-20T14:17:22;24.30;3.90
3037;DHT22;1528;52.550;13.408;2023-07-20T14:20:08;24.20;4.20
3037;DHT22;1528;52.550;13.408;2023-07-20T14:22:54;24.20;3.90
3037;DHT22;1528;52.550;13.408;2023-07-20T14:25:40;24.00;3.70
3037;DHT22;1528;52.550;13.408;2023-07-20T14:28:26;23.80;4.20
3037;DHT22;1528;52.550;13.408;2023-07-20T14:31:12;23.90;4.40
3037;DHT22;1528;52.550;13.408;2023-07-20T14:33:59;24.10;4.30
3037;DHT22;1528;52.550;13.408;2023-07-20T14:36:45;24.30;3.70
3037;DHT22;1528;52.550;13.408;2023-07-20T14:39:30;24.50;3.30
3037;DHT22;1528;52.550;13.408;2023-07-20T14:42:15;24.50;4.20
3037;DHT22;1528;52.550;13.408;2023-07-20T14:45:02;24.40;3.80
3037;DHT22;1528;52.550;13.408;2023-07-20T14:47:47;24.60;3.20
3037;DHT22;1528;52.550;13.408;2023-07-20T14:50:39;24.70;3.90
3037;DHT22;1528;52.550;13.408;2023-07-20T14:53:25;24.60;3.00
3037;DHT22;1528;52.550;13.408;2023-07-20T14:56:12;24.60;2.30
3037;DHT22;1528;52.550;13.408;2023-07-20T14:58:58;24.50;2.40
3037;DHT22;1528;52.550;13.408;2023-07-20T15:01:44;24.40;2.10
3037;DHT22;1528;52.550;13.408;2023-07-20T15:04:30;24.20;2.60
3037;DHT22;1528;52.550;13.408;2023-07-20T15:07:18;24.10;3.80
3037;DHT22;1528;52.550;13.408;2023-07-20T15:10:05;24.10;3.20
3037;DHT22;1528;52.550;13.408;2023-07-20T15:12:50;24.10;3.20
3037;DHT22;1528;52.550;13.408;2023-07-20T15:15:36;24.10;2.90
3037;DHT22;1528;52.550;13.408;2023-07-20T15:18:22;24.10;2.30
3037;DHT22;1528;52.550;13.408;2023-07-20T15:21:07;24.10;3.10
3037;DHT22;1528;52.550;13.408;2023-07-20T15:23:54;24.10;2.80
3037;DHT22;1528;52.550;13.408;2023-07-20T15:26:39;24.10;3.10
3037;DHT22;1528;52.550;13.408;2023-07-20T15:29:25;24.20;4.00
3037;DHT22;1528;52.550;13.408;2023-07-20T15:32:11;24.20;3.30
3037;DHT22;1528;52.550;13.408;2023-07-20T15:34:56;24.20;2.90
3037;DHT22;1528;52.550;13.408;2023-07-20T15:37:42;24.10;3.30
3037;DHT22;1528;52.550;13.408;2023-07-20T15:40:29;23.90;3.80
3037;DHT22;1528;52.550;13.408;2023-07-20T15:43:14;23.70;3.30
3037;DHT22;1528;52.550;13.408;2023-07-20T15:46:02;23.60;3.30
3037;DHT22;1528;52.550;13.408;2023-07-20T15:48:52;23.60;3.40
3037;DHT22;1528;52.550;13.408;2023-07-20T15:51:38;23.60;3.50
3037;DHT22;1528;52.550;13.408;2023-07-20T15:54:25;23.60;3.70
3037;DHT22;1528;52.550;13.408;2023-07-20T15:57:12;23.60;3.20
3037;DHT22;1528;52.550;13.408;2023-07-20T15:59:58;23.50;3.70
3037;DHT22;1528;52.550;13.408;2023-07-20T16:02:43;23.40;4.60
3037;DHT22;1528;52.550;13.408;2023-07-20T16:05:29;23.40;4.90
3037;DHT22;1528;52.550;13.408;2023-07-20T16:08:17;23.40;5.20
3037;DHT22;1528;52.550;13.408;2023-07-20T16:11:02;23.40;5.40
3037;DHT22;1528;52.550;13.408;2023-07-20T16:13:50;23.30;5.50
3037;DHT22;1528;52.550;13.408;2023-07-20T16:16:36;23.20;5.70
3037;DHT22;1528;52.550;13.408;2023-07-20T16:19:22;23.40;5.80
3037;DHT22;1528;52.550;13.408;2023-07-20T16:22:07;23.40;5.80
3037;DHT22;1528;52.550;13.408;2023-07-20T16:24:56;23.50;5.50
3037;DHT22;1528;52.550;13.408;2023-07-20T16:27:41;23.60;4.80
3037;DHT22;1528;52.550;13.408;2023-07-20T16:30:29;23.50;4.70
3037;DHT22;1528;52.550;13.408;2023-07-20T16:33:14;23.40;4.70
3037;DHT22;1528;52.550;13.408;2023-07-20T16:36:02;23.30;5.00
3037;DHT22;1528;52.550;13.408;2023-07-20T16:38:47;23.20;5.00
3037;DHT22;1528;52.550;13.408;2023-07-20T16:41:33;23.20;4.60
3037;DHT22;1528;52.550;13.408;2023-07-20T16:44:18;23.20;5.20
3037;DHT22;1528;52.550;13.408;2023-07-20T16:47:06;23.20;5.70
3037;DHT22;1528;52.550;13.408;2023-07-20T16:49:52;23.10;6.50
3037;DHT22;1528;52.550;13.408;2023-07-20T16:52:38;23.10;6.90
3037;DHT22;1528;52.550;13.408;2023-07-20T16:55:24;23.00;7.40
3037;DHT22;1528;52.550;13.408;2023-07-20T16:58:09;23.00;7.60
3037;DHT22;1528;52.550;13.408;2023-07-20T17:01:04;22.90;7.70
3037;DHT22;1528;52.550;13.408;2023-07-20T17:03:52;22.80;7.50
3037;DHT22;1528;52.550;13.408;2023-07-20T17:06:37;22.90;7.40
3037;DHT22;1528;52.550;13.408;2023-07-20T17:09:24;22.90;7.10
3037;DHT22;1528;52.550;13.408;2023-07-20T17:12:10;22.90;7.10
3037;DHT22;1528;52.550;13.408;2023-07-20T17:14:56;22.90;7.40
3037;DHT22;1528;52.550;13.408;2023-07-20T17:17:42;22.80;7.50
3037;DHT22;1528;52.550;13.408;2023-07-20T17:20:29;22.70;7.60
3037;DHT22;1528;52.550;13.408;2023-07-20T17:23:14;22.70;7.20
3037;DHT22;1528;52.550;13.408;2023-07-20T17:26:02;22.60;7.50
3037;DHT22;1528;52.550;13.408;2023-07-20T17:28:48;22.40;7.30
3037;DHT22;1528;52.550;13.408;2023-07-20T17:31:33;22.30;7.50
3037;DHT22;1528;52.550;13.408;2023-07-20T17:34:19;22.20;7.50
3037;DHT22;1528;52.550;13.408;2023-07-20T17:37:06;22.10;7.80
3037;DHT22;1528;52.550;13.408;2023-07-20T17:39:52;22.00;8.40
3037;DHT22;1528;52.550;13.408;2023-07-20T17:42:38;22.00;7.90
3037;DHT22;1528;52.550;13.408;2023-07-20T17:45:24;21.90;8.20
3037;DHT22;1528;52.550;13.408;2023-07-20T17:48:10;21.90;7.80
3037;DHT22;1528;52.550;13.408;2023-07-20T17:50:55;21.90;7.80
3037;DHT22;1528;52.550;13.408;2023-07-20T17:53:42;21.90;7.60
3037;DHT22;1528;52.550;13.408;2023-07-20T17:56:28;21.90;7.80